Greenbrier, Arkansas
Current Conditions -  °F | °C
As of 3:58 AM on Saturday 22 Nov 2014 (Local Time) from KLRF Reporting Station
Overcast Overcast  
Wind Chill: 11°   Ceiling: 5500
Heat Index: 11°   Visibility: 10mi
Dew Point: 10°   Wind: 5mph
Humidity: 96%   Direction: NA
Pressure: 30.21"   Gusts: NA
Location:  35.23°N, 92.39°W
Report Text: KLRF 220958Z AUTO VRB04KT 10SM OVC055 11/10 A3021 RMK AO2 SLP233 T01050099
Loading
Personal Weather Stations






























Interactive Weather Map New forecast layout! Learn more

10-Day Weather Forecast

Advertisements
Track Severe Weather on mobile